臺北飛航情報區 - 海峽席

METAR RCTP 211230Z 19007KT 160V230 9999 FEW010 SCT050 24/21 Q1015 NOSIG RMK A2999=

站台狀態:Online
最後更新:2024-02-21 20:30:04